Time;durP1;ratioP1;P1;durP2;ratioP2;P2;SDS_P1;SDS_P2;PMS_P1;PMS_P2;Temp;Humidity;BMP_temperature;BMP_pressure;BME280_temperature;BME280_humidity;BME280_pressure;Samples;Min_cycle;Max_cycle;Signal;HPM_P1;HPM_P2
2023/08/10 00:01:47;;;;;;;4.82;0.75;;;;;;;19.76;47.29;93922.78;5022583;28;20025;-73
2023/08/10 00:04:12;;;;;;;3.85;0.90;;;;;;;19.75;47.42;93926.63;5022409;28;20029;-73
2023/08/10 00:06:39;;;;;;;5.82;0.93;;;;;;;19.69;47.44;93925.38;5022688;28;20033;-72
2023/08/10 00:09:05;;;;;;;1.45;0.80;;;;;;;19.62;48.04;93923.38;5022318;28;20324;-73
2023/08/10 00:11:30;;;;;;;2.33;1.00;;;;;;;19.63;47.98;93930.31;5022508;28;20025;-73
2023/08/10 00:13:56;;;;;;;2.42;0.90;;;;;;;19.59;47.98;93931.44;5022332;28;20026;-73
2023/08/10 00:16:21;;;;;;;2.33;1.08;;;;;;;19.58;48.14;93924.47;5025052;28;20090;-73
2023/08/10 00:18:46;;;;;;;2.25;0.70;;;;;;;19.53;48.23;93917.47;5026077;28;20021;-73
2023/08/10 00:21:12;;;;;;;3.85;0.80;;;;;;;19.52;48.55;93925.94;5025881;28;20045;-73
2023/08/10 00:23:37;;;;;;;2.30;0.85;;;;;;;19.51;48.25;93921.69;5025839;28;20018;-73
2023/08/10 00:26:03;;;;;;;2.45;0.80;;;;;;;19.45;48.31;93913.88;5025773;28;20017;-74
2023/08/10 00:28:28;;;;;;;1.50;0.80;;;;;;;19.43;48.77;93921.59;5024625;28;20311;-73
2023/08/10 00:30:54;;;;;;;1.35;0.70;;;;;;;19.40;48.91;93919.63;5025689;28;20029;-73
2023/08/10 00:33:20;;;;;;;7.38;0.88;;;;;;;19.36;48.75;93916.09;5025732;28;20097;-75
2023/08/10 00:35:46;;;;;;;7.00;1.00;;;;;;;19.32;49.32;93907.19;5024431;28;20014;-74
2023/08/10 00:38:11;;;;;;;2.45;0.90;;;;;;;19.36;49.82;93904.53;5025585;28;20316;-74
2023/08/10 00:40:37;;;;;;;2.30;0.77;;;;;;;19.29;49.94;93905.19;5025707;28;20024;-74
2023/08/10 00:43:02;;;;;;;3.55;1.08;;;;;;;19.29;49.85;93897.09;5025418;28;20021;-74
2023/08/10 00:45:28;;;;;;;1.40;0.90;;;;;;;19.33;49.69;93905.25;5025334;28;20261;-74
2023/08/10 00:47:54;;;;;;;6.60;0.85;;;;;;;19.36;49.59;93899.91;5025347;28;20049;-74
2023/08/10 00:50:20;;;;;;;4.35;1.17;;;;;;;19.36;49.51;93905.31;5024151;28;20338;-74
2023/08/10 00:52:46;;;;;;;1.13;0.68;;;;;;;19.36;49.80;93891.00;5025408;28;20037;-74
2023/08/10 00:55:12;;;;;;;3.47;0.65;;;;;;;19.37;50.09;93890.63;5025476;28;20085;-74
2023/08/10 00:57:38;;;;;;;3.70;0.93;;;;;;;19.41;50.06;93890.69;5025142;28;20053;-74
2023/08/10 01:00:05;;;;;;;1.30;0.70;;;;;;;19.36;49.92;93883.69;5025403;28;20021;-74
2023/08/10 01:02:31;;;;;;;2.30;0.95;;;;;;;19.32;50.38;93882.09;5025056;28;20021;-74
2023/08/10 01:04:56;;;;;;;3.95;1.23;;;;;;;19.21;50.45;93876.53;5025019;28;20067;-74
2023/08/10 01:07:31;;;;;;;1.88;0.95;;;;;;;19.14;50.66;93877.22;5025059;28;20034;-74
2023/08/10 01:10:06;;;;;;;2.25;0.90;;;;;;;19.14;50.32;93887.25;5024781;28;20038;-74
2023/08/10 01:12:59;;;;;;;3.92;0.90;;;;;;;19.10;50.76;93889.13;5023751;28;20022;-74
2023/08/10 01:15:33;;;;;;;1.77;0.93;;;;;;;19.07;51.45;93887.97;5022128;28;20054;-74
2023/08/10 01:18:01;;;;;;;3.97;1.05;;;;;;;19.06;51.47;93886.38;5020655;28;20324;-74
2023/08/10 01:20:30;;;;;;;2.88;1.05;;;;;;;19.03;52.17;93887.91;5021648;28;20029;-74
2023/08/10 01:23:11;;;;;;;2.45;1.10;;;;;;;19.02;51.95;93889.03;5024333;28;20018;-74
2023/08/10 01:25:37;;;;;;;5.28;1.98;;;;;;;18.97;52.14;93893.97;5023410;28;20030;-74
2023/08/10 01:28:03;;;;;;;4.90;1.30;;;;;;;18.93;52.56;93901.25;5024629;28;20029;-74
2023/08/10 01:30:28;;;;;;;1.92;1.00;;;;;;;18.85;52.50;93908.47;5024556;28;20223;-74
2023/08/10 01:32:54;;;;;;;8.38;0.98;;;;;;;18.86;52.81;93907.31;5024557;28;20021;-74
2023/08/10 01:35:19;;;;;;;1.40;0.70;;;;;;;18.79;52.47;93904.53;5024675;28;20018;-74
2023/08/10 01:37:45;;;;;;;2.28;1.05;;;;;;;18.73;52.90;93905.97;5024542;28;20212;-74
2023/08/10 01:40:13;;;;;;;2.53;1.10;;;;;;;18.59;53.23;93899.19;5024305;28;20029;-74
2023/08/10 01:42:41;;;;;;;3.47;1.00;;;;;;;18.56;53.73;93896.44;5024465;28;20052;-74
2023/08/10 01:45:07;;;;;;;1.42;0.90;;;;;;;18.58;53.32;93907.66;5024400;28;20040;-75
2023/08/10 01:47:51;;;;;;;1.33;0.82;;;;;;;18.45;53.61;93912.47;5024330;28;20037;-74
2023/08/10 01:50:19;;;;;;;1.92;1.00;;;;;;;18.34;54.75;93906.09;5023064;28;20201;-74
2023/08/10 01:52:51;;;;;;;1.42;0.70;;;;;;;18.35;54.73;93902.28;5024352;28;20056;-74
2023/08/10 01:55:17;;;;;;;3.17;1.20;;;;;;;18.35;55.29;93897.66;5024280;28;20018;-74
2023/08/10 01:57:43;;;;;;;2.22;0.90;;;;;;;18.38;55.27;93912.38;5024173;28;20216;-74
2023/08/10 02:00:10;;;;;;;2.70;1.15;;;;;;;18.36;55.66;93904.63;5022928;28;20021;-74
2023/08/10 02:02:36;;;;;;;5.88;1.77;;;;;;;18.36;54.33;93912.72;5024219;28;20030;-74
2023/08/10 02:05:01;;;;;;;2.33;1.10;;;;;;;18.38;53.55;93899.66;5024009;28;20395;-74
2023/08/10 02:07:27;;;;;;;4.97;1.23;;;;;;;18.40;53.22;93893.91;5024106;28;20037;-74
2023/08/10 02:09:52;;;;;;;1.60;0.80;;;;;;;18.45;52.83;93907.06;5023872;28;20046;-74
2023/08/10 02:12:18;;;;;;;2.65;1.20;;;;;;;18.47;52.76;93915.59;5023856;28;20232;-74
2023/08/10 02:14:43;;;;;;;1.90;0.90;;;;;;;18.35;53.22;93910.38;5022546;28;20029;-73
2023/08/10 02:17:08;;;;;;;3.15;1.27;;;;;;;18.32;53.37;93903.78;5023793;28;20092;-73
2023/08/10 02:19:34;;;;;;;2.88;0.98;;;;;;;18.27;53.88;93916.81;5023930;28;20057;-73
2023/08/10 02:21:59;;;;;;;2.42;0.93;;;;;;;18.30;54.41;93910.66;5023732;28;20068;-73
2023/08/10 02:24:25;;;;;;;2.38;1.00;;;;;;;18.34;53.91;93919.59;5023677;28;20056;-73
2023/08/10 02:26:50;;;;;;;2.50;1.10;;;;;;;18.27;54.35;93933.00;5022471;28;20047;-73
2023/08/10 02:29:16;;;;;;;1.88;1.02;;;;;;;18.27;54.34;93946.47;5023484;28;20033;-73
2023/08/10 02:31:41;;;;;;;1.95;0.88;;;;;;;18.20;54.79;93950.59;5023538;28;20049;-73
2023/08/10 02:34:08;;;;;;;1.55;0.85;;;;;;;18.17;55.22;93970.19;5023702;28;20026;-74
2023/08/10 02:36:33;;;;;;;3.58;1.15;;;;;;;18.12;54.66;93972.44;5023512;28;20114;-74
2023/08/10 02:39:00;;;;;;;1.60;0.95;;;;;;;18.08;55.11;93996.63;5022869;28;20025;-74
2023/08/10 02:41:25;;;;;;;1.77;1.10;;;;;;;18.00;56.56;93995.72;5023498;28;20022;-73
2023/08/10 02:43:51;;;;;;;6.88;1.10;;;;;;;17.89;59.21;93997.44;5023156;28;20029;-72
2023/08/10 02:46:16;;;;;;;10.75;1.20;;;;;;;17.83;61.03;94013.09;5023246;28;20021;-72
2023/08/10 02:48:42;;;;;;;4.47;1.60;;;;;;;17.73;62.45;94021.72;5023291;28;20049;-72
2023/08/10 02:51:07;;;;;;;3.30;1.38;;;;;;;17.60;63.33;94033.78;5023523;28;20029;-72
2023/08/10 02:53:32;;;;;;;4.43;1.58;;;;;;;17.39;64.46;94042.94;5023141;28;20220;-73
2023/08/10 02:55:58;;;;;;;2.88;1.50;;;;;;;17.18;64.97;94051.34;5023227;28;20256;-73
2023/08/10 02:58:24;;;;;;;6.10;1.67;;;;;;;16.97;66.69;94051.59;5023090;28;20223;-75
2023/08/10 03:00:49;;;;;;;3.10;1.52;;;;;;;16.84;68.16;94044.75;5023146;28;20331;-74
2023/08/10 03:03:14;;;;;;;4.57;1.38;;;;;;;16.79;70.99;94043.09;5023175;28;20041;-74
2023/08/10 03:05:40;;;;;;;3.45;1.27;;;;;;;16.75;71.58;94047.59;5023042;28;20028;-73
2023/08/10 03:08:06;;;;;;;3.88;1.33;;;;;;;16.68;71.72;94044.72;5023167;28;20064;-73
2023/08/10 03:10:31;;;;;;;3.75;1.17;;;;;;;16.57;70.65;94052.53;5022811;28;20038;-73
2023/08/10 03:12:57;;;;;;;3.45;1.38;;;;;;;16.49;72.92;94056.19;5022806;28;20021;-73
2023/08/10 03:15:22;;;;;;;3.47;1.40;;;;;;;16.46;73.25;94054.16;5023012;28;20025;-73
2023/08/10 03:17:48;;;;;;;8.63;1.33;;;;;;;16.43;73.56;94055.66;5022927;28;20024;-72
2023/08/10 03:20:16;;;;;;;3.60;1.38;;;;;;;16.38;72.97;94060.50;5023012;28;20259;-73
2023/08/10 03:22:43;;;;;;;6.07;1.58;;;;;;;16.33;74.71;94053.47;5022960;28;20181;-73
2023/08/10 03:25:09;;;;;;;2.65;1.48;;;;;;;16.19;74.92;94047.69;5022985;28;20024;-73
2023/08/10 03:27:34;;;;;;;2.40;1.33;;;;;;;16.05;75.86;94037.34;5022809;28;20018;-73
2023/08/10 03:30:06;;;;;;;2.65;1.58;;;;;;;16.01;77.00;94034.56;5022810;28;20045;-73
2023/08/10 03:32:32;;;;;;;5.97;1.63;;;;;;;16.06;78.78;94033.53;5022844;28;20022;-73
2023/08/10 03:34:57;;;;;;;1.90;1.42;;;;;;;16.16;79.41;94037.63;5022766;28;20375;-73
2023/08/10 03:37:23;;;;;;;3.85;1.35;;;;;;;16.22;80.74;94031.66;5022706;28;20024;-73
2023/08/10 03:39:48;;;;;;;7.18;2.00;;;;;;;16.24;81.09;94029.41;5022794;28;20025;-73
2023/08/10 03:42:14;;;;;;;6.65;1.52;;;;;;;16.28;81.50;94040.25;5022673;28;20018;-73
2023/08/10 03:44:39;;;;;;;3.58;1.38;;;;;;;16.32;81.41;94029.59;5022378;28;20049;-73
2023/08/10 03:47:05;;;;;;;3.10;1.73;;;;;;;16.38;81.17;94039.75;5022974;28;20240;-73
2023/08/10 03:49:31;;;;;;;3.55;1.88;;;;;;;16.41;80.79;94035.59;5022726;28;20308;-74
2023/08/10 03:51:56;;;;;;;4.88;2.10;;;;;;;16.47;80.55;94042.28;5026518;28;20084;-73
2023/08/10 03:54:22;;;;;;;3.88;1.85;;;;;;;16.44;79.85;94053.72;5026454;28;20022;-74
2023/08/10 03:56:48;;;;;;;6.10;1.63;;;;;;;16.39;80.39;94067.44;5026259;28;20022;-74
2023/08/10 03:59:13;;;;;;;5.90;2.10;;;;;;;16.29;81.43;94076.00;5026492;28;20022;-74
2023/08/10 04:01:39;;;;;;;5.07;2.00;;;;;;;16.17;81.55;94079.53;5026348;28;20219;-74
2023/08/10 04:04:05;;;;;;;5.82;2.00;;;;;;;16.07;82.45;94094.25;5026380;28;20079;-74
2023/08/10 04:06:31;;;;;;;2.90;2.10;;;;;;;16.02;83.73;94087.22;5026242;28;20071;-74
2023/08/10 04:08:56;;;;;;;3.78;2.17;;;;;;;15.96;83.56;94088.56;5026129;28;20033;-74
2023/08/10 04:11:22;;;;;;;4.85;2.10;;;;;;;15.86;82.88;94077.53;5025820;28;20109;-74
2023/08/10 04:13:47;;;;;;;6.78;2.28;;;;;;;15.78;82.86;94077.31;5026089;28;20037;-73
2023/08/10 04:16:13;;;;;;;11.80;2.10;;;;;;;15.82;83.50;94085.47;5026043;28;20030;-73
2023/08/10 04:18:39;;;;;;;4.47;2.03;;;;;;;15.95;85.00;94084.31;5026077;28;20034;-73
2023/08/10 04:21:05;;;;;;;11.23;2.78;;;;;;;16.06;85.21;94076.56;5025945;28;20219;-74
2023/08/10 04:23:30;;;;;;;3.65;1.80;;;;;;;16.11;84.16;94080.91;5025835;28;20256;-73
2023/08/10 04:25:56;;;;;;;2.88;2.00;;;;;;;16.13;83.81;94090.19;5025684;28;20096;-73
2023/08/10 04:28:22;;;;;;;3.75;1.92;;;;;;;16.13;84.32;94103.63;5025719;28;20025;-73
2023/08/10 04:30:48;;;;;;;3.38;1.70;;;;;;;15.99;81.99;94108.59;5025825;28;20025;-73
2023/08/10 04:33:13;;;;;;;5.60;1.85;;;;;;;15.92;82.95;94119.16;5025757;28;20320;-73
2023/08/10 04:35:39;;;;;;;3.42;1.73;;;;;;;15.84;84.58;94127.00;5025721;28;20095;-73
2023/08/10 04:38:04;;;;;;;3.83;1.83;;;;;;;15.77;85.34;94126.00;5025646;28;20045;-72
2023/08/10 04:40:30;;;;;;;4.47;2.20;;;;;;;15.72;84.85;94137.78;5025534;28;20018;-72
2023/08/10 04:42:57;;;;;;;5.93;2.05;;;;;;;15.75;85.89;94136.31;5025634;28;20088;-73
2023/08/10 04:45:23;;;;;;;3.28;2.00;;;;;;;15.77;86.29;94134.88;5025464;28;20056;-72
2023/08/10 04:47:49;;;;;;;3.45;1.98;;;;;;;15.71;83.93;94136.19;5025391;28;20022;-73
2023/08/10 04:50:14;;;;;;;6.40;2.13;;;;;;;15.64;84.22;94126.00;5025466;28;20017;-73
2023/08/10 04:52:40;;;;;;;3.03;2.05;;;;;;;15.70;85.09;94123.88;5025182;28;20022;-72
2023/08/10 04:55:06;;;;;;;6.97;2.67;;;;;;;15.76;85.65;94117.19;5025456;28;20018;-73
2023/08/10 04:57:32;;;;;;;4.40;2.00;;;;;;;15.84;86.50;94127.00;5025207;28;20087;-73
2023/08/10 04:59:57;;;;;;;6.97;2.53;;;;;;;15.92;86.42;94129.91;5025186;28;20331;-73
2023/08/10 05:02:23;;;;;;;9.23;2.60;;;;;;;15.96;86.22;94133.50;5024627;28;20025;-73
2023/08/10 05:04:48;;;;;;;4.43;2.40;;;;;;;16.05;86.24;94129.53;5025084;28;20029;-74
2023/08/10 05:07:14;;;;;;;7.68;2.88;;;;;;;16.04;85.01;94132.56;5024855;28;20324;-74
2023/08/10 05:09:39;;;;;;;9.50;2.85;;;;;;;16.06;85.16;94119.56;5024823;28;20076;-74
2023/08/10 05:12:05;;;;;;;12.60;3.45;;;;;;;16.06;85.84;94133.03;5025140;28;20092;-74
2023/08/10 05:14:31;;;;;;;9.73;2.63;;;;;;;16.02;85.40;94127.53;5024683;28;20212;-74
2023/08/10 05:16:56;;;;;;;10.68;2.35;;;;;;;16.07;84.47;94131.88;5024954;28;20024;-74
2023/08/10 05:19:21;;;;;;;5.45;2.03;;;;;;;16.10;84.03;94133.09;5024805;28;20093;-73
2023/08/10 05:21:47;;;;;;;8.85;2.10;;;;;;;16.19;83.29;94123.78;5024667;28;20025;-74
2023/08/10 05:24:12;;;;;;;6.07;2.40;;;;;;;16.20;83.59;94125.34;5024536;28;20067;-74
2023/08/10 05:26:38;;;;;;;6.28;2.60;;;;;;;16.17;84.87;94114.50;5024709;28;20075;-74
2023/08/10 05:29:03;;;;;;;5.68;2.83;;;;;;;16.15;85.43;94108.66;5024750;28;20018;-74
2023/08/10 05:31:29;;;;;;;9.77;4.45;;;;;;;16.23;85.05;94100.44;5024694;28;20026;-73
2023/08/10 05:33:54;;;;;;;14.23;5.00;;;;;;;16.20;84.93;94101.16;5024551;28;20014;-72
2023/08/10 05:36:20;;;;;;;12.30;4.00;;;;;;;16.22;84.93;94090.84;5024298;28;20021;-73
2023/08/10 05:38:45;;;;;;;5.53;2.50;;;;;;;16.30;85.05;94099.84;5024336;28;20026;-72
2023/08/10 05:41:11;;;;;;;10.88;2.60;;;;;;;16.37;84.45;94107.34;5024311;28;20342;-71
2023/08/10 05:43:36;;;;;;;8.75;2.70;;;;;;;16.37;84.02;94105.44;5024437;28;20021;-71
2023/08/10 05:46:02;;;;;;;9.10;2.60;;;;;;;16.38;84.60;94103.53;5024279;28;20032;-73
2023/08/10 05:48:27;;;;;;;5.43;2.47;;;;;;;16.39;84.90;94105.88;5024099;28;20327;-73
2023/08/10 05:50:53;;;;;;;9.25;2.78;;;;;;;16.48;85.22;94100.34;5024083;28;20089;-72
2023/08/10 05:53:18;;;;;;;4.55;2.47;;;;;;;16.47;85.47;94090.72;5023999;28;20215;-73
2023/08/10 05:55:44;;;;;;;6.75;3.08;;;;;;;16.57;85.49;94074.06;5023915;28;20013;-71
2023/08/10 05:58:09;;;;;;;10.55;3.00;;;;;;;16.65;84.95;94051.59;5024094;28;20219;-71
2023/08/10 06:00:36;;;;;;;9.43;2.95;;;;;;;16.67;84.44;94034.31;5024294;28;20064;-71
2023/08/10 06:03:05;;;;;;;6.10;2.85;;;;;;;16.60;84.85;94033.00;5023991;28;20030;-71
2023/08/10 06:05:31;;;;;;;13.90;3.28;;;;;;;16.60;85.33;94051.84;5023840;28;20041;-70
2023/08/10 06:07:57;;;;;;;7.55;2.75;;;;;;;16.51;84.70;94062.00;5023510;28;20052;-72
2023/08/10 06:10:23;;;;;;;5.55;2.53;;;;;;;16.33;85.33;94068.81;5023638;28;20240;-72
2023/08/10 06:12:49;;;;;;;8.45;3.22;;;;;;;16.18;86.52;94078.41;5022841;28;20029;-71
2023/08/10 06:15:15;;;;;;;10.32;3.72;;;;;;;16.02;87.10;94078.38;5023700;28;20018;-72
2023/08/10 06:17:41;;;;;;;8.45;3.33;;;;;;;15.90;88.35;94078.41;5023750;28;20033;-71
2023/08/10 06:20:09;;;;;;;9.38;2.97;;;;;;;15.79;88.83;94070.81;5023588;28;20232;-71
2023/08/10 06:22:40;;;;;;;11.70;2.75;;;;;;;15.72;89.34;94078.66;5023768;28;20033;-73
2023/08/10 06:25:06;;;;;;;3.53;1.90;;;;;;;15.75;88.66;94094.13;5023471;28;20407;-74
2023/08/10 06:27:33;;;;;;;7.82;2.53;;;;;;;15.74;88.30;94105.97;5023361;28;20030;-74
2023/08/10 06:29:58;;;;;;;12.70;3.30;;;;;;;15.68;88.24;94125.34;5023183;28;20032;-72
2023/08/10 06:32:25;;;;;;;8.50;2.90;;;;;;;15.63;88.28;94115.59;5023072;28;20046;-72
2023/08/10 06:34:51;;;;;;;7.50;2.45;;;;;;;15.54;87.88;94120.31;5023208;28;20034;-73
2023/08/10 06:37:16;;;;;;;5.75;2.40;;;;;;;15.51;88.01;94120.97;5023469;28;20342;-73
2023/08/10 06:39:42;;;;;;;6.05;2.22;;;;;;;15.48;88.09;94118.97;5023262;28;20033;-73
2023/08/10 06:42:08;;;;;;;7.57;2.58;;;;;;;15.42;88.04;94124.56;5023908;28;20021;-83
2023/08/10 06:44:33;;;;;;;6.38;2.08;;;;;;;15.43;87.63;94125.38;5023681;28;20252;-86
2023/08/10 06:46:58;;;;;;;7.25;2.20;;;;;;;15.42;87.73;94129.94;5023504;28;20040;-87
2023/08/10 06:49:24;;;;;;;7.32;2.83;;;;;;;15.44;88.90;94130.38;5023815;28;20067;-81
2023/08/10 06:51:50;;;;;;;6.90;2.90;;;;;;;15.49;89.04;94124.03;5023593;28;20022;-82
2023/08/10 06:54:15;;;;;;;12.27;4.22;;;;;;;15.56;89.41;94124.22;5022099;28;20037;-83
2023/08/10 06:56:41;;;;;;;9.18;2.45;;;;;;;15.56;88.83;94129.59;5023135;28;20028;-76
2023/08/10 06:59:07;;;;;;;7.75;2.70;;;;;;;15.59;88.35;94128.13;5023257;28;20374;-75
2023/08/10 07:01:32;;;;;;;7.43;2.55;;;;;;;15.68;88.06;94134.19;5022936;28;20022;-82
2023/08/10 07:03:58;;;;;;;5.28;2.33;;;;;;;15.76;88.73;94136.00;5023174;28;20125;-91
2023/08/10 07:06:23;;;;;;;7.05;3.00;;;;;;;15.82;88.38;94134.63;5023914;28;20045;-90
2023/08/10 07:08:52;;;;;;;6.55;2.80;;;;;;;15.86;87.42;94144.72;5024179;28;20252;-89
2023/08/10 07:11:18;;;;;;;8.20;2.88;;;;;;;15.86;87.54;94142.03;5022251;28;20236;-90
2023/08/10 07:13:46;;;;;;;6.28;3.40;;;;;;;15.81;87.96;94145.72;5023784;28;20093;-82
2023/08/10 07:16:11;;;;;;;5.25;2.95;;;;;;;15.82;87.69;94148.06;5021821;28;20347;-82
2023/08/10 07:18:37;;;;;;;6.30;2.95;;;;;;;15.90;87.22;94142.91;5021911;28;20213;-82
2023/08/10 07:21:06;;;;;;;4.97;2.47;;;;;;;15.93;86.61;94148.38;5021707;28;20033;-84
2023/08/10 07:23:32;;;;;;;14.35;2.92;;;;;;;15.97;86.81;94145.78;5023062;28;20042;-83
2023/08/10 07:25:57;;;;;;;8.38;2.90;;;;;;;16.02;86.61;94145.56;5026887;28;20212;-83
2023/08/10 07:28:23;;;;;;;9.13;3.53;;;;;;;16.04;85.46;94149.47;5027035;28;20100;-80
2023/08/10 07:30:50;;;;;;;5.63;2.78;;;;;;;16.07;85.47;94150.69;5026846;28;20189;-81
2023/08/10 07:33:16;;;;;;;6.82;3.03;;;;;;;16.10;85.40;94152.72;5027022;28;20096;-77
2023/08/10 07:35:42;;;;;;;7.30;3.00;;;;;;;16.11;85.70;94148.91;5026597;28;20112;-78
2023/08/10 07:38:08;;;;;;;5.93;3.30;;;;;;;16.16;86.93;94151.38;5027068;28;20025;-75
2023/08/10 07:40:33;;;;;;;8.88;2.78;;;;;;;16.15;86.30;94155.16;5026852;28;20219;-76
2023/08/10 07:42:59;;;;;;;6.53;2.75;;;;;;;16.23;85.41;94158.84;5026603;28;20284;-75
2023/08/10 07:45:25;;;;;;;8.70;3.00;;;;;;;16.23;85.66;94151.53;5026525;28;20022;-74
2023/08/10 07:47:50;;;;;;;5.47;3.35;;;;;;;16.29;85.93;94157.47;5026436;28;20022;-75
2023/08/10 07:50:15;;;;;;;9.55;3.75;;;;;;;16.36;85.71;94156.88;5026730;28;20093;-74
2023/08/10 07:52:41;;;;;;;10.30;3.80;;;;;;;16.36;85.21;94164.94;5026463;28;20096;-74
2023/08/10 07:55:07;;;;;;;6.72;3.40;;;;;;;16.47;84.94;94162.59;5026523;28;20296;-74
2023/08/10 07:57:32;;;;;;;8.40;4.50;;;;;;;16.54;85.08;94154.69;5026348;28;20212;-75
2023/08/10 08:00:00;;;;;;;5.63;3.88;;;;;;;16.75;85.17;94165.22;5026473;28;20021;-75
2023/08/10 08:02:28;;;;;;;11.40;3.63;;;;;;;16.93;84.33;94163.81;5026452;28;20029;-75
2023/08/10 08:04:53;;;;;;;12.82;3.33;;;;;;;17.10;82.08;94159.25;5026163;28;20029;-76
2023/08/10 08:07:19;;;;;;;8.90;3.38;;;;;;;17.25;81.56;94164.63;5026295;28;20026;-74
2023/08/10 08:09:44;;;;;;;7.85;3.30;;;;;;;17.45;80.31;94157.41;5026054;28;20042;-75
2023/08/10 08:12:10;;;;;;;7.03;3.25;;;;;;;17.59;78.68;94165.06;5026180;28;20045;-75
2023/08/10 08:14:35;;;;;;;5.10;3.58;;;;;;;17.69;79.37;94162.94;5026180;28;20064;-76
2023/08/10 08:17:01;;;;;;;7.38;4.90;;;;;;;17.78;79.78;94161.63;5025779;28;20324;-76
2023/08/10 08:19:27;;;;;;;8.68;4.80;;;;;;;17.78;79.90;94158.94;5025979;28;20048;-76
2023/08/10 08:21:52;;;;;;;6.43;3.45;;;;;;;17.80;78.31;94170.13;5026067;28;20030;-76
2023/08/10 08:24:18;;;;;;;6.93;3.97;;;;;;;17.84;76.42;94162.16;5025761;28;20026;-76
2023/08/10 08:26:43;;;;;;;5.25;3.15;;;;;;;17.85;76.50;94171.84;5025949;28;20030;-77
2023/08/10 08:29:09;;;;;;;7.32;3.22;;;;;;;17.96;75.71;94174.75;5025979;28;20068;-75
2023/08/10 08:31:35;;;;;;;5.95;3.05;;;;;;;18.09;74.63;94161.94;5025911;28;20021;-77
2023/08/10 08:34:01;;;;;;;5.13;3.22;;;;;;;18.18;73.46;94167.91;5025550;28;20026;-77
2023/08/10 08:36:26;;;;;;;6.10;3.25;;;;;;;18.37;74.00;94167.13;5024905;28;20044;-76
2023/08/10 08:38:52;;;;;;;10.63;3.95;;;;;;;18.58;74.05;94169.47;5025538;28;20017;-76
2023/08/10 08:41:20;;;;;;;7.45;3.33;;;;;;;18.64;72.07;94159.94;5025572;28;20029;-76
2023/08/10 08:43:47;;;;;;;3.28;2.38;;;;;;;18.69;71.46;94167.00;5025400;28;20048;-76
2023/08/10 08:46:13;;;;;;;12.70;3.70;;;;;;;18.70;70.16;94165.84;5025481;28;20025;-76
2023/08/10 08:48:39;;;;;;;9.95;3.00;;;;;;;18.67;70.76;94166.56;5025642;28;20197;-76
2023/08/10 08:51:05;;;;;;;7.68;3.45;;;;;;;18.81;71.50;94167.66;5025571;28;20028;-76
2023/08/10 08:53:32;;;;;;;5.72;3.00;;;;;;;19.05;70.18;94165.78;5025260;28;20304;-76
2023/08/10 08:55:58;;;;;;;4.75;3.20;;;;;;;19.20;68.92;94158.69;5025121;28;20017;-76
2023/08/10 08:58:23;;;;;;;7.43;3.63;;;;;;;19.27;67.91;94166.91;5023912;28;20379;-77
2023/08/10 09:00:53;;;;;;;5.03;2.90;;;;;;;19.33;66.91;94170.09;5025038;28;20056;-76
2023/08/10 09:03:24;;;;;;;7.70;3.28;;;;;;;19.42;68.48;94174.09;5024033;28;20017;-76
2023/08/10 09:05:50;;;;;;;5.35;2.65;;;;;;;19.58;70.15;94163.16;5024947;28;20025;-76
2023/08/10 09:08:17;;;;;;;7.38;3.38;;;;;;;19.75;65.65;94158.41;5025087;28;20025;-76
2023/08/10 09:10:45;;;;;;;5.57;3.35;;;;;;;19.67;66.30;94167.53;5024799;28;20041;-76
2023/08/10 09:13:18;;;;;;;9.90;3.15;;;;;;;19.54;66.97;94169.63;5023901;28;20220;-75
2023/08/10 09:15:44;;;;;;;7.05;2.88;;;;;;;19.34;66.98;94177.84;5024915;28;20028;-75
2023/08/10 09:18:09;;;;;;;5.32;2.75;;;;;;;19.37;66.78;94179.81;5024602;28;20224;-76
2023/08/10 09:20:35;;;;;;;5.80;2.97;;;;;;;19.38;66.85;94175.19;5024535;28;20021;-75
2023/08/10 09:23:01;;;;;;;7.55;2.88;;;;;;;19.55;68.61;94179.31;5024704;28;20029;-75
2023/08/10 09:25:34;;;;;;;4.30;2.85;;;;;;;19.62;67.19;94172.13;5023301;28;20022;-75
2023/08/10 09:28:00;;;;;;;6.22;3.40;;;;;;;19.84;66.74;94167.84;5024490;28;20039;-75
2023/08/10 09:30:26;;;;;;;6.18;2.70;;;;;;;20.11;65.42;94170.53;5024687;28;20219;-75
2023/08/10 09:32:51;;;;;;;21.25;3.90;;;;;;;20.17;62.85;94168.28;5023406;28;20026;-75
2023/08/10 09:35:18;;;;;;;9.35;2.72;;;;;;;20.24;62.80;94163.72;5024422;28;20197;-75
2023/08/10 09:37:47;;;;;;;10.23;3.70;;;;;;;20.28;62.61;94157.59;5024485;28;20075;-75
2023/08/10 09:40:15;;;;;;;10.88;3.03;;;;;;;20.18;61.66;94161.72;5024512;28;20052;-75
2023/08/10 09:42:41;;;;;;;5.60;3.00;;;;;;;20.31;61.46;94164.97;5024452;28;20116;-75
2023/08/10 09:45:11;;;;;;;5.10;3.10;;;;;;;20.21;60.27;94163.69;5024318;28;20026;-76
2023/08/10 09:47:41;;;;;;;8.32;3.58;;;;;;;20.19;61.96;94161.38;5023248;28;20037;-76
2023/08/10 09:50:09;;;;;;;8.07;4.45;;;;;;;20.34;61.83;94159.63;5024277;28;20022;-75
2023/08/10 09:52:36;;;;;;;6.97;2.58;;;;;;;20.56;62.98;94146.34;5024314;28;20080;-75
2023/08/10 09:55:04;;;;;;;5.38;2.40;;;;;;;20.64;63.81;94151.50;5023799;28;20203;-76
2023/08/10 09:57:30;;;;;;;8.55;2.45;;;;;;;20.83;58.97;94155.19;5024098;28;20029;-78
2023/08/10 09:59:55;;;;;;;3.33;2.17;;;;;;;21.00;57.95;94154.59;5022692;28;20029;-77
2023/08/10 10:02:22;;;;;;;5.10;2.72;;;;;;;21.05;57.00;94145.34;5024125;28;20032;-78
2023/08/10 10:04:48;;;;;;;9.13;2.63;;;;;;;21.09;57.96;94157.00;5023973;28;20049;-79
2023/08/10 10:07:21;;;;;;;14.82;2.75;;;;;;;21.24;59.49;94155.97;5023994;28;20052;-78
2023/08/10 10:09:47;;;;;;;;;;;;;;;21.44;56.31;94153.84;5023500;28;20045;-78
2023/08/10 10:12:14;;;;;;;6.82;2.53;;;;;;;21.43;56.33;94157.72;5022596;28;19955;-78
2023/08/10 10:14:45;;;;;;;5.05;2.60;;;;;;;21.56;54.93;94158.19;5022682;28;20028;-78
2023/08/10 10:17:12;;;;;;;3.70;2.67;;;;;;;21.54;56.84;94160.50;5023219;28;20026;-78
2023/08/10 10:19:42;;;;;;;7.22;2.97;;;;;;;21.41;55.46;94167.34;5023171;28;20382;-78
2023/08/10 10:22:08;;;;;;;3.00;2.20;;;;;;;21.44;55.72;94166.63;5022121;28;20033;-79
2023/08/10 10:24:38;;;;;;;4.40;2.38;;;;;;;21.56;55.73;94157.44;5021610;28;20137;-78
2023/08/10 10:27:08;;;;;;;8.10;3.00;;;;;;;21.63;54.83;94154.75;5021845;28;20025;-78
2023/08/10 10:29:49;;;;;;;4.00;2.58;;;;;;;21.53;54.51;94160.88;5020550;28;20032;-78
2023/08/10 10:32:19;;;;;;;6.45;2.35;;;;;;;21.46;54.41;94158.13;5021805;28;20285;-78
2023/08/10 10:34:46;;;;;;;6.53;2.75;;;;;;;21.43;55.81;94157.72;5020624;28;20045;-78
2023/08/10 10:37:20;;;;;;;8.50;2.65;;;;;;;21.43;55.43;94149.59;5021509;28;20026;-78
2023/08/10 10:39:49;;;;;;;3.72;3.03;;;;;;;21.52;56.18;94151.97;5021686;28;20316;-78
2023/08/10 10:42:16;;;;;;;2.80;2.10;;;;;;;21.59;54.13;94151.25;5023417;28;20025;-79
2023/08/10 10:45:08;;;;;;;5.13;2.38;;;;;;;21.68;55.59;94151.72;5023064;28;20093;-77
2023/08/10 10:47:41;;;;;;;3.57;2.47;;;;;;;21.78;54.27;94150.25;5023359;28;20072;-78
2023/08/10 10:50:34;;;;;;;9.70;2.42;;;;;;;21.94;52.43;94145.31;5023375;28;20018;-78
2023/08/10 10:53:05;;;;;;;4.18;2.13;;;;;;;21.92;52.64;94152.25;5023026;28;20040;-79
2023/08/10 10:55:33;;;;;;;4.97;2.00;;;;;;;21.92;52.18;94157.66;5023077;28;20018;-78
2023/08/10 10:58:00;;;;;;;3.72;2.42;;;;;;;22.10;54.16;94153.13;5021973;28;20325;-78
2023/08/10 11:00:26;;;;;;;4.47;2.15;;;;;;;22.25;53.53;94145.88;5022785;28;20320;-79
2023/08/10 11:02:52;;;;;;;6.30;2.10;;;;;;;22.40;52.71;94144.00;5022839;28;20040;-79
2023/08/10 11:05:18;;;;;;;5.75;2.10;;;;;;;22.62;51.89;94142.94;5022020;28;20338;-80
2023/08/10 11:07:46;;;;;;;5.43;2.40;;;;;;;22.80;51.34;94136.78;5023302;28;20209;-79
2023/08/10 11:10:12;;;;;;;4.15;2.00;;;;;;;22.92;51.13;94133.72;5023116;28;20091;-79
2023/08/10 11:12:39;;;;;;;4.28;2.10;;;;;;;22.94;50.79;94142.25;5021807;28;20030;-78
2023/08/10 11:15:09;;;;;;;4.18;2.25;;;;;;;23.14;48.76;94136.47;5023619;28;20010;-80
2023/08/10 11:17:38;;;;;;;5.18;1.90;;;;;;;23.14;49.68;94139.19;5023484;28;20023;-78
2023/08/10 11:20:14;;;;;;;6.53;2.78;;;;;;;23.22;49.90;94140.75;5022640;28;20044;-77
2023/08/10 11:22:40;;;;;;;5.75;2.35;;;;;;;23.28;50.03;94144.66;5023140;28;20032;-77
2023/08/10 11:25:13;;;;;;;8.45;2.53;;;;;;;23.35;48.76;94135.75;5023152;28;20026;-80
2023/08/10 11:27:47;;;;;;;5.55;1.90;;;;;;;23.20;47.94;94132.22;5023090;28;20045;-80
2023/08/10 11:30:17;;;;;;;4.07;1.98;;;;;;;23.15;48.19;94133.38;5023084;28;20022;-80
2023/08/10 11:32:48;;;;;;;4.68;1.58;;;;;;;23.31;47.83;94129.53;5023066;28;20026;-78